Williamstown, West Virginia
Current Conditions -  °F | °C
As of 6:53 AM on Sunday 23 Nov 2014 (Local Time) from KPKB Reporting Station
Broken Clouds Broken Clouds  
Wind Chill: 48°   Ceiling: 10000
Heat Index: 48°   Visibility: 10mi
Dew Point: 24°   Wind: 3mph
Humidity: 39%   Direction: 140°SE
Pressure: 30.11"   Gusts: NA
Location:  39.4°N, 81.45°W
Report Text: KPKB 231153Z 14003KT 10SM BKN100 09/M04 A3011 RMK AO2 SLP196 T00891044 10111 20056 58004
Loading
Personal Weather Stations






























Interactive Weather Map New forecast layout! Learn more

10-Day Weather Forecast

Advertisements
Track Severe Weather on mobile